Time;durP1;ratioP1;P1;durP2;ratioP2;P2;SDS_P1;SDS_P2;PMS_P1;PMS_P2;Temp;Humidity;BMP_temperature;BMP_pressure;BME280_temperature;BME280_humidity;BME280_pressure;Samples;Min_cycle;Max_cycle;Signal;HPM_P1;HPM_P2
2022/08/26 00:00:20;;;;;;;;;;;21.30;99.90;;;;;;5065945;28;19916;-85
2022/08/26 00:02:46;;;;;;;;;;;21.30;99.90;;;;;;5061276;28;19967;-84
2022/08/26 00:05:11;;;;;;;;;;;21.40;99.90;;;;;;5062363;28;19951;-85
2022/08/26 00:07:37;;;;;;;;;;;21.30;99.90;;;;;;5061868;28;19930;-86
2022/08/26 00:10:03;;;;;;;;;;;21.30;99.90;;;;;;5048943;28;19931;-85
2022/08/26 00:12:28;;;;;;;;;;;21.20;99.90;;;;;;5062669;28;19916;-85
2022/08/26 00:14:54;;;;;;;;;;;21.10;99.90;;;;;;5089100;28;19916;-84
2022/08/26 00:17:19;;;;;;;;;;;21.00;99.90;;;;;;5066614;28;19924;-84
2022/08/26 00:19:45;;;;;;;;;;;21.10;99.90;;;;;;5062721;28;19920;-84
2022/08/26 00:22:11;;;;;;;;;;;21.00;99.90;;;;;;5062921;28;19936;-85
2022/08/26 00:24:36;;;;;;;;;;;21.00;99.90;;;;;;5060417;28;19971;-86
2022/08/26 00:27:02;;;;;;;;;;;21.00;99.90;;;;;;5060408;28;19920;-85
2022/08/26 00:29:30;;;;;;;;;;;21.00;99.90;;;;;;5093924;28;19917;-86
2022/08/26 00:31:55;;;;;;;;;;;20.90;99.90;;;;;;5065444;28;20011;-85
2022/08/26 00:34:21;;;;;;;;;;;20.90;99.90;;;;;;5062342;28;19966;-85
2022/08/26 00:36:46;;;;;;;;;;;20.80;99.90;;;;;;5062163;28;19981;-85
2022/08/26 00:39:12;;;;;;;;;;;20.90;99.90;;;;;;5061038;28;20053;-85
2022/08/26 00:41:38;;;;;;;;;;;20.80;99.90;;;;;;5069844;28;20003;-84
2022/08/26 00:44:04;;;;;;;;;;;20.70;99.90;;;;;;5061781;28;20536;-86
2022/08/26 00:46:35;;;;;;;;;;;20.80;99.90;;;;;;5062999;28;19920;-85
2022/08/26 00:49:08;;;;;;;;;;;20.80;99.90;;;;;;5082175;28;19997;-85
2022/08/26 00:51:38;;;;;;;;;;;20.70;99.90;;;;;;5065832;28;19924;-86
2022/08/26 00:54:04;;;;;;;;;;;20.60;99.90;;;;;;5066564;28;19999;-86
2022/08/26 00:56:35;;;;;;;;;;;20.70;99.90;;;;;;5081062;28;19924;-86
2022/08/26 00:59:03;;;;;;;;;;;20.70;99.90;;;;;;5067661;28;19966;-81
2022/08/26 01:01:30;;;;;;;;;;;20.70;99.90;;;;;;5062209;28;19935;-81
2022/08/26 01:03:55;;;;;;;;;;;20.60;99.90;;;;;;5079509;28;19915;-82
2022/08/26 01:06:22;;;;;;;;;;;20.60;99.90;;;;;;5073374;28;19912;-80
2022/08/26 01:08:47;;;;;;;;;;;20.60;99.90;;;;;;5066412;28;19959;-80
2022/08/26 01:11:14;;;;;;;;;;;20.60;99.90;;;;;;5066564;28;20460;-80
2022/08/26 01:13:39;;;;;;;;;;;20.70;99.90;;;;;;5065577;28;19940;-79
2022/08/26 01:16:07;;;;;;;;;;;20.60;99.90;;;;;;5068665;28;19917;-81
2022/08/26 01:18:32;;;;;;;;;;;20.40;99.90;;;;;;5062189;28;19955;-82
2022/08/26 01:21:10;;;;;;;;;;;20.50;99.90;;;;;;5064538;28;19916;-81
2022/08/26 01:23:37;;;;;;;;;;;20.40;99.90;;;;;;5056979;28;19924;-82
2022/08/26 01:26:15;;;;;;;;;;;20.40;99.90;;;;;;5060815;28;20574;-83
2022/08/26 01:28:41;;;;;;;;;;;20.40;99.90;;;;;;5062772;28;20606;-82
2022/08/26 01:31:09;;;;;;;;;;;20.40;99.90;;;;;;5060416;28;20311;-81
2022/08/26 01:33:54;;;;;;;;;;;20.30;99.90;;;;;;5060532;28;19916;-82
2022/08/26 01:36:19;;;;;;;;;;;20.40;99.90;;;;;;5059552;28;19921;-81
2022/08/26 01:38:45;;;;;;;;;;;20.30;99.90;;;;;;5061072;28;20014;-81
2022/08/26 01:41:15;;;;;;;;;;;20.30;99.90;;;;;;5059326;28;20027;-80
2022/08/26 01:43:42;;;;;;;;;;;20.20;99.90;;;;;;5061489;28;19925;-79
2022/08/26 01:46:08;;;;;;;;;;;20.20;99.90;;;;;;5064471;28;19920;-80
2022/08/26 01:48:34;;;;;;;;;;;20.20;99.90;;;;;;5063215;28;19970;-83
2022/08/26 01:51:00;;;;;;;;;;;20.10;99.90;;;;;;5064739;28;19931;-81
2022/08/26 01:53:26;;;;;;;;;;;20.10;99.90;;;;;;5061432;28;19917;-81
2022/08/26 01:55:54;;;;;;;;;;;20.00;99.90;;;;;;5060255;28;19916;-81
2022/08/26 01:58:22;;;;;;;;;;;20.10;99.90;;;;;;5070191;28;19931;-82
2022/08/26 02:00:47;;;;;;;;;;;20.10;99.90;;;;;;5062324;28;19923;-83
2022/08/26 02:03:17;;;;;;;;;;;20.10;99.90;;;;;;5054651;28;19917;-82
2022/08/26 02:05:52;;;;;;;;;;;20.00;99.90;;;;;;5050941;28;20079;-83
2022/08/26 02:08:19;;;;;;;;;;;20.00;99.90;;;;;;5058940;28;19921;-83
2022/08/26 02:10:44;;;;;;;;;;;19.80;99.90;;;;;;5063622;28;20474;-82
2022/08/26 02:13:10;;;;;;;;;;;19.80;99.90;;;;;;5062600;28;19919;-82
2022/08/26 02:15:39;;;;;;;;;;;19.70;99.90;;;;;;5062767;28;19969;-83
2022/08/26 02:18:05;;;;;;;;;;;19.60;99.90;;;;;;5057672;28;20316;-82
2022/08/26 02:20:30;;;;;;;;;;;19.70;99.90;;;;;;5064514;28;19917;-84
2022/08/26 02:22:56;;;;;;;;;;;19.60;99.90;;;;;;5061205;28;20337;-82
2022/08/26 02:25:22;;;;;;;;;;;19.70;99.90;;;;;;5062290;28;19920;-81
2022/08/26 02:27:47;;;;;;;;;;;19.70;99.90;;;;;;5062462;28;20023;-81
2022/08/26 02:30:15;;;;;;;;;;;19.60;99.90;;;;;;5062890;28;19916;-81
2022/08/26 02:32:41;;;;;;;;;;;19.70;99.90;;;;;;5062143;28;19920;-81
2022/08/26 02:35:07;;;;;;;;;;;19.70;99.90;;;;;;5060923;28;21343;-81
2022/08/26 02:37:33;;;;;;;;;;;19.70;99.90;;;;;;5058689;28;19967;-83
2022/08/26 02:39:59;;;;;;;;;;;19.70;99.90;;;;;;5063960;28;20370;-83
2022/08/26 02:42:24;;;;;;;;;;;19.60;99.90;;;;;;5059084;28;19921;-83
2022/08/26 02:44:50;;;;;;;;;;;19.60;99.90;;;;;;5064472;28;19919;-82
2022/08/26 02:47:16;;;;;;;;;;;19.40;99.90;;;;;;5059354;28;19920;-82
2022/08/26 02:49:42;;;;;;;;;;;19.40;99.90;;;;;;5062597;28;20342;-82
2022/08/26 02:52:08;;;;;;;;;;;19.40;99.90;;;;;;5063081;28;19966;-83
2022/08/26 02:54:34;;;;;;;;;;;19.40;99.90;;;;;;5064379;28;19933;-82
2022/08/26 02:56:59;;;;;;;;;;;19.40;99.90;;;;;;5062928;28;19924;-81
2022/08/26 02:59:25;;;;;;;;;;;19.50;99.90;;;;;;5060468;28;19917;-82
2022/08/26 03:01:51;;;;;;;;;;;19.60;99.90;;;;;;5077104;28;19921;-82
2022/08/26 03:04:16;;;;;;;;;;;19.50;99.90;;;;;;5059510;28;19926;-83
2022/08/26 03:06:42;;;;;;;;;;;19.40;99.90;;;;;;5062164;28;19920;-82
2022/08/26 03:09:08;;;;;;;;;;;19.50;99.90;;;;;;5063084;28;19927;-82
2022/08/26 03:11:34;;;;;;;;;;;19.40;99.90;;;;;;5063488;28;19920;-81
2022/08/26 03:14:00;;;;;;;;;;;19.30;99.90;;;;;;5063205;28;20384;-82
2022/08/26 03:16:25;;;;;;;;;;;19.20;99.90;;;;;;5062381;28;19928;-81
2022/08/26 03:18:51;;;;;;;;;;;19.20;99.90;;;;;;5061619;28;20463;-81
2022/08/26 03:21:17;;;;;;;;;;;19.10;99.90;;;;;;5062019;28;20042;-81
2022/08/26 03:23:43;;;;;;;;;;;19.10;99.90;;;;;;5062733;28;19913;-81
2022/08/26 03:26:10;;;;;;;;;;;19.10;99.90;;;;;;5057158;28;19952;-81
2022/08/26 03:30:38;;;;;;;;;;;19.00;99.90;;;;;;5061492;28;19916;-81
2022/08/26 03:31:21;;;;;;;;;;;19.10;99.90;;;;;;5061623;28;19931;-81
2022/08/26 03:33:47;;;;;;;;;;;19.00;99.90;;;;;;5066377;28;19916;-80
2022/08/26 03:36:12;;;;;;;;;;;19.10;99.90;;;;;;5063208;28;19917;-85
2022/08/26 03:38:38;;;;;;;;;;;19.10;99.90;;;;;;5062656;28;19956;-85
2022/08/26 03:41:04;;;;;;;;;;;19.10;99.90;;;;;;5068022;28;19924;-84
2022/08/26 03:43:29;;;;;;;;;;;19.10;99.90;;;;;;5056669;28;19917;-82
2022/08/26 03:45:55;;;;;;;;;;;18.90;99.90;;;;;;5060637;28;19913;-82
2022/08/26 03:48:20;;;;;;;;;;;18.80;99.90;;;;;;5069498;28;19946;-82
2022/08/26 03:50:46;;;;;;;;;;;18.80;99.90;;;;;;5066708;28;19955;-81
2022/08/26 03:53:11;;;;;;;;;;;18.70;99.90;;;;;;5060341;28;20686;-81
2022/08/26 03:55:37;;;;;;;;;;;18.70;99.90;;;;;;5061472;28;19916;-81
2022/08/26 03:58:03;;;;;;;;;;;18.70;99.90;;;;;;5060154;28;19928;-82
2022/08/26 04:00:28;;;;;;;;;;;18.50;99.90;;;;;;5061645;28;19912;-83
2022/08/26 04:02:54;;;;;;;;;;;18.50;99.90;;;;;;5066040;28;19971;-80
2022/08/26 04:05:20;;;;;;;;;;;18.30;99.90;;;;;;5063706;28;19917;-81
2022/08/26 04:07:46;;;;;;;;;;;18.30;99.90;;;;;;5062363;28;19928;-81
2022/08/26 04:10:13;;;;;;;;;;;18.30;99.90;;;;;;5061589;28;19966;-81
2022/08/26 04:12:39;;;;;;;;;;;18.30;99.90;;;;;;5063283;28;19912;-82
2022/08/26 04:15:06;;;;;;;;;;;18.40;99.90;;;;;;5059582;28;19947;-82
2022/08/26 04:17:32;;;;;;;;;;;18.40;99.90;;;;;;5066670;28;19971;-84
2022/08/26 04:19:57;;;;;;;;;;;18.40;99.90;;;;;;5061480;28;19940;-84
2022/08/26 04:22:23;;;;;;;;;;;18.50;99.90;;;;;;5061380;28;19913;-83
2022/08/26 04:24:49;;;;;;;;;;;18.40;99.90;;;;;;5093987;28;20261;-84
2022/08/26 04:27:14;;;;;;;;;;;18.50;99.90;;;;;;5064853;28;19965;-83
2022/08/26 04:29:40;;;;;;;;;;;18.50;99.90;;;;;;5066552;28;19919;-82
2022/08/26 04:32:06;;;;;;;;;;;18.60;99.90;;;;;;5065019;28;19920;-81
2022/08/26 04:34:31;;;;;;;;;;;18.60;99.90;;;;;;5067263;28;19924;-81
2022/08/26 04:36:57;;;;;;;;;;;18.60;99.90;;;;;;5065751;28;19966;-83
2022/08/26 04:39:22;;;;;;;;;;;18.60;99.90;;;;;;5065488;28;19939;-83
2022/08/26 04:41:48;;;;;;;;;;;18.50;99.90;;;;;;5065374;28;19947;-81
2022/08/26 04:44:15;;;;;;;;;;;18.40;99.90;;;;;;5065242;28;20410;-78
2022/08/26 04:46:41;;;;;;;;;;;18.30;99.90;;;;;;5068013;28;19968;-78
2022/08/26 04:49:09;;;;;;;;;;;18.40;99.90;;;;;;5061313;28;20025;-78
2022/08/26 04:51:35;;;;;;;;;;;18.30;99.90;;;;;;5090008;28;19928;-79
2022/08/26 04:54:01;;;;;;;;;;;18.20;99.90;;;;;;5065298;28;20291;-78
2022/08/26 04:56:29;;;;;;;;;;;18.20;99.90;;;;;;5065281;28;19936;-79
2022/08/26 04:58:55;;;;;;;;;;;18.10;99.90;;;;;;5062982;28;19931;-88
2022/08/26 05:01:21;;;;;;;;;;;18.00;99.90;;;;;;5060338;28;19920;-88
2022/08/26 05:03:47;;;;;;;;;;;18.00;99.90;;;;;;5065796;28;19923;-85
2022/08/26 05:06:13;;;;;;;;;;;18.10;99.90;;;;;;5064016;28;20330;-86
2022/08/26 05:08:39;;;;;;;;;;;18.10;99.90;;;;;;5064819;28;19916;-87
2022/08/26 05:11:05;;;;;;;;;;;18.00;99.90;;;;;;5053164;28;20319;-85
2022/08/26 05:13:31;;;;;;;;;;;18.00;99.90;;;;;;5048229;28;20647;-93
2022/08/26 05:16:00;;;;;;;;;;;18.10;99.90;;;;;;5051108;28;20028;-89
2022/08/26 05:18:29;;;;;;;;;;;18.10;99.90;;;;;;5064874;28;19929;-88
2022/08/26 05:20:54;;;;;;;;;;;18.10;99.90;;;;;;5066670;28;19951;-90
2022/08/26 05:23:21;;;;;;;;;;;18.30;99.90;;;;;;5069120;28;20024;-91
2022/08/26 05:25:48;;;;;;;;;;;18.70;99.90;;;;;;5065587;28;19942;-89
2022/08/26 05:28:15;;;;;;;;;;;18.70;99.90;;;;;;5065549;28;19923;-86
2022/08/26 05:30:40;;;;;;;;;;;18.60;99.90;;;;;;5064247;28;19924;-88
2022/08/26 05:33:07;;;;;;;;;;;18.80;99.90;;;;;;5065559;28;20433;-85
2022/08/26 05:35:33;;;;;;;;;;;19.40;99.90;;;;;;5053403;28;20327;-83
2022/08/26 05:38:03;;;;;;;;;;;20.10;99.90;;;;;;5062301;28;20364;-91
2022/08/26 05:40:32;;;;;;;;;;;20.50;99.90;;;;;;5056227;28;20368;-85
2022/08/26 05:42:58;;;;;;;;;;;20.30;99.90;;;;;;5064775;28;19917;-86
2022/08/26 05:45:24;;;;;;;;;;;20.30;99.90;;;;;;5068930;28;19961;-86
2022/08/26 05:47:50;;;;;;;;;;;20.50;99.90;;;;;;5064582;28;20538;-86
2022/08/26 05:50:20;;;;;;;;;;;20.40;99.90;;;;;;5056398;28;19921;-82
2022/08/26 05:52:46;;;;;;;;;;;20.80;99.90;;;;;;5060960;28;19931;-84
2022/08/26 05:55:12;;;;;;;;;;;21.20;99.90;;;;;;5062529;28;20015;-83
2022/08/26 05:57:38;;;;;;;;;;;21.10;99.90;;;;;;5044240;28;19927;-83
2022/08/26 06:00:04;;;;;;;;;;;21.50;99.90;;;;;;5046501;28;19912;-83
2022/08/26 06:02:29;;;;;;;;;;;21.40;99.90;;;;;;5078050;28;20391;-83
2022/08/26 06:04:55;;;;;;;;;;;21.50;99.90;;;;;;5045669;28;19967;-82
2022/08/26 06:08:09;;;;;;;;;;;20.70;99.90;;;;;;5045852;28;19912;-87
2022/08/26 06:10:06;;;;;;;;;;;22.20;99.90;;;;;;5049125;28;20386;-83
2022/08/26 06:12:32;;;;;;;;;;;23.50;99.90;;;;;;5065643;28;19916;-82
2022/08/26 06:14:58;;;;;;;;;;;23.90;99.90;;;;;;5065751;28;20691;-91
2022/08/26 06:17:24;;;;;;;;;;;24.30;99.90;;;;;;5067036;28;19921;-93
2022/08/26 06:19:49;;;;;;;;;;;24.60;99.90;;;;;;5065574;28;20434;-84
2022/08/26 06:27:44;;;;;;;;;;;25.70;99.90;;;;;;5045435;28;19923;-83
2022/08/26 06:30:09;;;;;;;;;;;26.40;99.10;;;;;;5045352;28;19913;-82
2022/08/26 06:32:35;;;;;;;;;;;26.50;98.40;;;;;;5063743;28;19917;-82
2022/08/26 06:35:00;;;;;;;;;;;26.70;97.80;;;;;;5064821;28;19912;-85
2022/08/26 06:37:26;;;;;;;;;;;26.80;97.60;;;;;;5063054;28;20668;-83
2022/08/26 06:39:51;;;;;;;;;;;26.90;96.70;;;;;;5067247;28;20410;-82
2022/08/26 06:42:18;;;;;;;;;;;26.70;97.10;;;;;;5057228;28;19922;-83
2022/08/26 06:44:43;;;;;;;;;;;27.50;96.40;;;;;;5053016;28;20709;-83
2022/08/26 06:47:09;;;;;;;;;;;27.30;95.00;;;;;;5050804;28;19923;-82
2022/08/26 06:49:35;;;;;;;;;;;26.60;95.90;;;;;;5057854;28;20260;-81
2022/08/26 06:52:02;;;;;;;;;;;27.20;95.70;;;;;;5062617;28;19974;-81
2022/08/26 06:54:31;;;;;;;;;;;27.80;94.50;;;;;;5063782;28;19970;-82
2022/08/26 06:56:57;;;;;;;;;;;27.80;94.00;;;;;;5064347;28;19993;-82
2022/08/26 06:59:23;;;;;;;;;;;27.70;94.40;;;;;;5051038;28;19920;-79
2022/08/26 07:01:48;;;;;;;;;;;27.50;94.30;;;;;;5063925;28;19916;-80
2022/08/26 07:04:17;;;;;;;;;;;27.60;93.30;;;;;;5059929;28;20350;-79
2022/08/26 07:06:48;;;;;;;;;;;28.10;92.70;;;;;;5055450;28;19917;-79
2022/08/26 07:09:13;;;;;;;;;;;28.20;91.80;;;;;;5047779;28;19927;-80
2022/08/26 07:11:39;;;;;;;;;;;28.70;91.20;;;;;;5072066;28;20299;-84
2022/08/26 07:14:05;;;;;;;;;;;28.80;90.60;;;;;;5063901;28;20299;-83
2022/08/26 07:16:31;;;;;;;;;;;29.10;90.20;;;;;;5064045;28;19974;-84
2022/08/26 07:18:56;;;;;;;;;;;28.90;88.90;;;;;;5064455;28;20296;-84
2022/08/26 07:21:23;;;;;;;;;;;29.00;89.70;;;;;;5064226;28;19920;-84
2022/08/26 07:23:48;;;;;;;;;;;29.10;89.80;;;;;;5064314;28;19912;-85
2022/08/26 07:26:19;;;;;;;;;;;29.30;87.90;;;;;;5064978;28;19922;-84
2022/08/26 07:28:45;;;;;;;;;;;30.10;86.20;;;;;;5064584;28;19908;-85
2022/08/26 07:31:12;;;;;;;;;;;29.80;85.70;;;;;;5063780;28;19963;-84
2022/08/26 07:33:38;;;;;;;;;;;29.90;84.70;;;;;;5063949;28;19923;-83
2022/08/26 07:36:04;;;;;;;;;;;30.70;81.60;;;;;;5063891;28;19978;-82
2022/08/26 07:38:30;;;;;;;;;;;30.90;79.70;;;;;;5063685;28;19955;-81
2022/08/26 07:40:55;;;;;;;;;;;31.50;79.10;;;;;;5063047;28;20463;-81
2022/08/26 07:43:21;;;;;;;;;;;31.10;78.70;;;;;;5063697;28;19912;-82
2022/08/26 07:45:47;;;;;;;;;;;31.20;77.60;;;;;;5063949;28;19920;-82
2022/08/26 07:48:12;;;;;;;;;;;31.90;76.00;;;;;;5063620;28;19959;-81
2022/08/26 07:50:40;;;;;;;;;;;32.20;74.40;;;;;;5063296;28;20004;-81
2022/08/26 07:53:05;;;;;;;;;;;32.40;73.50;;;;;;5062041;28;19928;-82
2022/08/26 07:55:31;;;;;;;;;;;33.10;72.30;;;;;;5063720;28;20272;-82
2022/08/26 07:57:56;;;;;;;;;;;33.40;70.40;;;;;;5063649;28;19927;-80
2022/08/26 08:00:22;;;;;;;;;;;33.00;70.40;;;;;;5063088;28;19912;-79
2022/08/26 08:02:48;;;;;;;;;;;33.40;71.10;;;;;;5064118;28;20050;-79
2022/08/26 08:05:15;;;;;;;;;;;32.50;71.80;;;;;;5063643;28;20406;-78
2022/08/26 08:07:43;;;;;;;;;;;32.50;69.50;;;;;;5063453;28;19928;-79
2022/08/26 08:10:11;;;;;;;;;;;33.40;68.40;;;;;;5066243;28;19935;-80
2022/08/26 08:12:37;;;;;;;;;;;32.90;67.40;;;;;;5058898;28;19944;-79
2022/08/26 08:15:03;;;;;;;;;;;33.00;68.40;;;;;;5063240;28;20413;-80
2022/08/26 08:17:29;;;;;;;;;;;33.90;67.40;;;;;;5062859;28;19922;-82
2022/08/26 08:19:54;;;;;;;;;;;34.10;66.60;;;;;;5064047;28;19923;-77
2022/08/26 08:22:22;;;;;;;;;;;34.70;65.70;;;;;;5058157;28;19963;-80
2022/08/26 08:24:48;;;;;;;;;;;35.80;63.50;;;;;;5055867;28;20445;-79
2022/08/26 08:27:14;;;;;;;;;;;35.10;64.00;;;;;;5063323;28;19952;-79
2022/08/26 08:29:40;;;;;;;;;;;35.50;62.00;;;;;;5061261;28;20012;-79
2022/08/26 08:32:05;;;;;;;;;;;36.00;62.40;;;;;;5061417;28;19984;-79
2022/08/26 08:34:31;;;;;;;;;;;35.50;61.90;;;;;;5061406;28;20006;-80
2022/08/26 08:36:56;;;;;;;;;;;35.00;62.00;;;;;;5063586;28;20338;-79
2022/08/26 08:39:22;;;;;;;;;;;34.80;62.00;;;;;;5064085;28;19998;-79
2022/08/26 08:41:54;;;;;;;;;;;35.80;61.70;;;;;;5056728;28;19944;-78
2022/08/26 08:44:21;;;;;;;;;;;35.20;60.50;;;;;;5051242;28;19925;-79
2022/08/26 08:46:55;;;;;;;;;;;35.40;60.30;;;;;;5058724;28;19966;-79
2022/08/26 08:49:21;;;;;;;;;;;36.90;59.70;;;;;;5043274;28;20007;-79
2022/08/26 08:51:50;;;;;;;;;;;37.00;59.10;;;;;;5061719;28;20542;-79
2022/08/26 08:54:15;;;;;;;;;;;37.00;58.10;;;;;;5059082;28;19916;-80
2022/08/26 08:56:52;;;;;;;;;;;36.70;58.10;;;;;;5082061;28;19920;-79
2022/08/26 08:59:19;;;;;;;;;;;37.20;58.10;;;;;;5082561;28;19916;-80
2022/08/26 09:01:50;;;;;;;;;;;37.60;57.50;;;;;;5065474;28;19962;-79
2022/08/26 09:04:22;;;;;;;;;;;37.20;57.40;;;;;;5063062;28;19913;-79
2022/08/26 09:06:51;;;;;;;;;;;38.20;58.30;;;;;;5072288;28;19998;-79
2022/08/26 09:09:29;;;;;;;;;;;37.90;58.00;;;;;;5078351;28;19931;-79
2022/08/26 09:11:57;;;;;;;;;;;38.00;57.30;;;;;;5070864;28;20476;-79
2022/08/26 09:14:23;;;;;;;;;;;37.80;56.90;;;;;;5066962;28;20395;-79
2022/08/26 09:17:03;;;;;;;;;;;38.20;56.90;;;;;;5071886;28;19920;-79
2022/08/26 09:19:32;;;;;;;;;;;38.00;55.60;;;;;;5085012;28;20022;-79
2022/08/26 09:21:59;;;;;;;;;;;37.70;56.10;;;;;;5080931;28;19921;-78
2022/08/26 09:24:26;;;;;;;;;;;38.10;56.00;;;;;;5062383;28;19920;-78
2022/08/26 09:26:51;;;;;;;;;;;38.40;55.90;;;;;;5055344;28;19952;-79
2022/08/26 09:29:17;;;;;;;;;;;38.20;54.80;;;;;;5056404;28;20435;-79
2022/08/26 09:31:42;;;;;;;;;;;38.00;55.00;;;;;;5066080;28;19913;-79
2022/08/26 09:34:16;;;;;;;;;;;38.20;55.30;;;;;;5064839;28;19924;-79
2022/08/26 09:36:43;;;;;;;;;;;37.70;55.80;;;;;;5046430;28;20342;-79
2022/08/26 09:39:26;;;;;;;;;;;38.30;55.40;;;;;;5058742;28;19970;-78
2022/08/26 09:42:01;;;;;;;;;;;39.00;54.30;;;;;;5084114;28;19917;-78
2022/08/26 09:44:27;;;;;;;;;;;37.00;55.10;;;;;;5066529;28;20672;-78
2022/08/26 09:46:57;;;;;;;;;;;37.10;55.20;;;;;;5070282;28;19916;-79
2022/08/26 09:49:28;;;;;;;;;;;38.40;53.70;;;;;;5057105;28;19917;-79
2022/08/26 09:52:12;;;;;;;;;;;38.70;53.30;;;;;;5063413;28;20015;-79
2022/08/26 09:54:38;;;;;;;;;;;37.00;53.80;;;;;;5069183;28;20015;-79
2022/08/26 09:57:15;;;;;;;;;;;37.80;54.60;;;;;;5088125;28;20007;-79
2022/08/26 09:59:41;;;;;;;;;;;37.90;52.70;;;;;;5073375;28;19959;-79
2022/08/26 10:02:23;;;;;;;;;;;37.20;53.80;;;;;;5066037;28;19912;-80
2022/08/26 10:04:50;;;;;;;;;;;37.70;52.80;;;;;;5064861;28;19912;-80
2022/08/26 10:07:32;;;;;;;;;;;33.70;57.10;;;;;;5075913;28;20607;-79
2022/08/26 10:09:57;;;;;;;;;;;33.30;59.10;;;;;;5070574;28;19916;-79
2022/08/26 10:12:23;;;;;;;;;;;33.00;59.40;;;;;;5065960;28;20751;-80
2022/08/26 10:14:50;;;;;;;;;;;32.60;60.20;;;;;;5066192;28;19919;-80
2022/08/26 10:17:40;;;;;;;;;;;32.60;61.00;;;;;;5068458;28;19963;-79
2022/08/26 10:20:11;;;;;;;;;;;33.50;59.30;;;;;;5067531;28;20349;-80
2022/08/26 10:22:48;;;;;;;;;;;33.80;57.60;;;;;;5063468;28;20383;-79
2022/08/26 10:25:17;;;;;;;;;;;34.10;58.20;;;;;;5063566;28;19951;-80
2022/08/26 10:27:47;;;;;;;;;;;33.70;58.70;;;;;;5065732;28;19916;-79
2022/08/26 10:30:14;;;;;;;;;;;34.20;59.60;;;;;;5050247;28;19916;-79
2022/08/26 10:32:45;;;;;;;;;;;34.70;57.70;;;;;;5064574;28;19908;-80
2022/08/26 10:35:12;;;;;;;;;;;34.10;57.50;;;;;;5062566;28;19917;-80
2022/08/26 10:37:39;;;;;;;;;;;33.80;58.20;;;;;;5044814;28;19921;-80
2022/08/26 10:40:07;;;;;;;;;;;33.50;58.10;;;;;;5054323;28;19920;-79
2022/08/26 10:42:41;;;;;;;;;;;33.90;58.70;;;;;;5056970;28;20007;-80
2022/08/26 10:45:09;;;;;;;;;;;33.20;59.10;;;;;;5094274;28;20677;-80
2022/08/26 10:47:47;;;;;;;;;;;32.60;61.00;;;;;;5053430;28;19920;-79
2022/08/26 10:50:12;;;;;;;;;;;32.40;61.10;;;;;;5062964;28;19912;-79
2022/08/26 10:52:53;;;;;;;;;;;32.80;60.40;;;;;;5065741;28;19948;-80
2022/08/26 10:55:19;;;;;;;;;;;32.70;59.10;;;;;;5063197;28;19962;-80
2022/08/26 10:58:00;;;;;;;;;;;32.80;61.10;;;;;;5064470;28;19924;-80
2022/08/26 11:03:54;;;;;;;;;;;32.50;60.40;;;;;;5020664;28;19913;-80
2022/08/26 11:06:21;;;;;;;;;;;33.20;59.80;;;;;;5020903;28;19928;-80
2022/08/26 11:08:57;;;;;;;;;;;33.20;58.90;;;;;;5020181;28;19924;-80
2022/08/26 11:11:41;;;;;;;;;;;32.80;55.30;;;;;;5019527;28;19932;-79
2022/08/26 11:14:18;;;;;;;;;;;32.70;57.30;;;;;;5016225;28;19917;-79
2022/08/26 11:16:45;;;;;;;;;;;32.70;57.30;;;;;;5010722;28;20495;-78
2022/08/26 11:19:32;;;;;;;;;;;32.10;57.20;;;;;;5019423;28;20004;-80
2022/08/26 11:21:57;;;;;;;;;;;31.90;58.10;;;;;;5019747;28;19917;-80
2022/08/26 11:24:41;;;;;;;;;;;31.50;58.70;;;;;;5019442;28;19917;-79
2022/08/26 11:27:08;;;;;;;;;;;31.50;58.60;;;;;;5021051;28;19914;-79
2022/08/26 11:29:52;;;;;;;;;;;31.40;57.10;;;;;;5019341;28;19917;-79
2022/08/26 11:32:26;;;;;;;;;;;31.10;58.30;;;;;;5021074;28;19917;-79
2022/08/26 11:34:56;;;;;;;;;;;31.20;58.50;;;;;;5050217;28;19912;-79
2022/08/26 11:37:24;;;;;;;;;;;31.20;58.40;;;;;;5064666;28;19932;-79
2022/08/26 11:39:53;;;;;;;;;;;31.40;59.60;;;;;;5063119;28;19940;-79
2022/08/26 11:42:22;;;;;;;;;;;31.70;58.80;;;;;;5062807;28;20276;-79
2022/08/26 11:44:47;;;;;;;;;;;30.80;58.80;;;;;;5064127;28;19974;-79
2022/08/26 11:47:14;;;;;;;;;;;30.70;60.10;;;;;;5064025;28;20016;-80
2022/08/26 11:49:39;;;;;;;;;;;30.40;60.20;;;;;;5063770;28;20340;-79
2022/08/26 11:52:11;;;;;;;;;;;30.40;61.60;;;;;;5069761;28;20391;-80
2022/08/26 11:54:37;;;;;;;;;;;29.90;61.30;;;;;;5058428;28;19925;-78
2022/08/26 11:57:03;;;;;;;;;;;30.10;62.30;;;;;;5043426;28;19971;-78
2022/08/26 11:59:37;;;;;;;;;;;30.70;62.40;;;;;;5044146;28;20702;-81
2022/08/26 12:02:03;;;;;;;;;;;31.30;62.80;;;;;;5043759;28;19913;-80
2022/08/26 12:04:31;;;;;;;;;;;31.30;60.20;;;;;;5043919;28;19990;-80
2022/08/26 12:06:58;;;;;;;;;;;31.60;61.20;;;;;;5072887;28;19915;-82
2022/08/26 12:09:28;;;;;;;;;;;31.60;59.90;;;;;;5048802;28;20012;-81
2022/08/26 12:12:17;;;;;;;;;;;30.60;61.60;;;;;;5043798;28;19920;-81
2022/08/26 12:14:43;;;;;;;;;;;30.30;60.90;;;;;;5044016;28;19913;-81
2022/08/26 12:17:15;;;;;;;;;;;29.90;60.20;;;;;;5048305;28;20011;-81
2022/08/26 12:19:42;;;;;;;;;;;29.90;60.60;;;;;;5043759;28;19917;-80
2022/08/26 12:22:20;;;;;;;;;;;30.10;60.10;;;;;;5059170;28;20307;-81
2022/08/26 12:24:47;;;;;;;;;;;30.40;61.00;;;;;;5062082;28;19963;-81
2022/08/26 12:27:13;;;;;;;;;;;30.40;60.30;;;;;;5063393;28;19913;-81
2022/08/26 12:29:38;;;;;;;;;;;30.20;59.70;;;;;;5062796;28;20392;-81
2022/08/26 12:32:11;;;;;;;;;;;30.50;61.00;;;;;;5063163;28;19913;-82
2022/08/26 12:34:38;;;;;;;;;;;30.50;61.00;;;;;;5045848;28;19923;-82
2022/08/26 12:37:03;;;;;;;;;;;30.50;60.70;;;;;;5043122;28;19924;-82
2022/08/26 12:39:32;;;;;;;;;;;30.60;62.20;;;;;;5042674;28;19952;-82
2022/08/26 12:41:58;;;;;;;;;;;30.90;62.70;;;;;;5062071;28;19917;-83
2022/08/26 12:44:30;;;;;;;;;;;30.80;61.30;;;;;;5062567;28;19916;-82
2022/08/26 12:47:15;;;;;;;;;;;30.70;61.20;;;;;;5063078;28;20673;-80
2022/08/26 12:49:41;;;;;;;;;;;30.30;61.00;;;;;;5059283;28;19917;-81
2022/08/26 12:52:28;;;;;;;;;;;30.40;60.70;;;;;;5046906;28;19924;-81
2022/08/26 12:55:02;;;;;;;;;;;30.80;63.10;;;;;;5056942;28;20466;-81
2022/08/26 12:57:33;;;;;;;;;;;30.70;61.40;;;;;;5065131;28;19928;-81
2022/08/26 13:00:18;;;;;;;;;;;30.40;60.90;;;;;;5066624;28;19919;-81
2022/08/26 13:02:43;;;;;;;;;;;30.60;60.40;;;;;;5066641;28;19912;-81
2022/08/26 13:05:18;;;;;;;;;;;31.00;61.10;;;;;;5066480;28;20375;-82
2022/08/26 13:08:04;;;;;;;;;;;30.70;59.60;;;;;;5066822;28;19913;-81
2022/08/26 13:10:35;;;;;;;;;;;30.70;60.10;;;;;;5046384;28;20410;-82
2022/08/26 13:13:00;;;;;;;;;;;30.60;60.20;;;;;;5045343;28;19912;-81
2022/08/26 13:15:26;;;;;;;;;;;30.30;60.00;;;;;;5055268;28;19924;-82
2022/08/26 13:17:51;;;;;;;;;;;30.40;62.30;;;;;;5066756;28;19927;-82
2022/08/26 13:20:17;;;;;;;;;;;30.00;61.40;;;;;;5067049;28;20003;-81
2022/08/26 13:22:42;;;;;;;;;;;30.10;61.40;;;;;;5066660;28;19909;-81
2022/08/26 13:25:08;;;;;;;;;;;29.90;60.60;;;;;;5066660;28;20011;-82
2022/08/26 13:27:34;;;;;;;;;;;30.00;63.00;;;;;;5066186;28;19916;-82
2022/08/26 13:30:00;;;;;;;;;;;29.90;62.20;;;;;;5066323;28;19913;-81
2022/08/26 13:32:26;;;;;;;;;;;30.00;62.60;;;;;;5066133;28;19912;-81
2022/08/26 13:34:52;;;;;;;;;;;30.10;63.00;;;;;;5066624;28;20315;-82
2022/08/26 13:37:21;;;;;;;;;;;29.90;61.90;;;;;;5066686;28;19912;-82
2022/08/26 13:39:47;;;;;;;;;;;29.70;62.60;;;;;;5065712;28;19920;-81
2022/08/26 13:42:13;;;;;;;;;;;29.90;63.30;;;;;;5064584;28;20284;-81
2022/08/26 13:44:39;;;;;;;;;;;29.70;61.20;;;;;;5066518;28;19927;-81
2022/08/26 13:47:05;;;;;;;;;;;29.00;61.30;;;;;;5066656;28;19975;-82
2022/08/26 13:49:31;;;;;;;;;;;28.80;61.90;;;;;;5066270;28;20036;-81
2022/08/26 13:51:56;;;;;;;;;;;28.80;61.30;;;;;;5098681;28;19924;-81
2022/08/26 13:54:22;;;;;;;;;;;28.60;59.80;;;;;;5066475;28;20019;-81
2022/08/26 13:56:48;;;;;;;;;;;28.60;60.00;;;;;;5066254;28;20339;-82
2022/08/26 13:59:13;;;;;;;;;;;29.00;61.10;;;;;;5064911;28;20003;-82
2022/08/26 14:01:39;;;;;;;;;;;29.30;63.00;;;;;;5066410;28;20470;-82
2022/08/26 14:04:05;;;;;;;;;;;29.40;62.10;;;;;;5066199;28;20004;-82
2022/08/26 14:06:30;;;;;;;;;;;29.40;62.60;;;;;;5065898;28;20568;-81
2022/08/26 14:08:57;;;;;;;;;;;29.20;61.00;;;;;;5062898;28;19977;-82
2022/08/26 14:11:23;;;;;;;;;;;29.00;59.00;;;;;;5048064;28;19913;-81
2022/08/26 14:13:49;;;;;;;;;;;28.90;60.10;;;;;;5065628;28;20711;-81
2022/08/26 14:16:20;;;;;;;;;;;29.10;60.70;;;;;;5065869;28;19912;-82
2022/08/26 14:18:47;;;;;;;;;;;29.20;61.60;;;;;;5065774;28;19967;-81
2022/08/26 14:21:13;;;;;;;;;;;29.10;60.40;;;;;;5065816;28;20012;-81
2022/08/26 14:23:39;;;;;;;;;;;29.10;60.00;;;;;;5045272;28;20023;-81
2022/08/26 14:26:07;;;;;;;;;;;29.10;59.40;;;;;;5058201;28;20412;-82
2022/08/26 14:28:32;;;;;;;;;;;29.10;60.30;;;;;;5063949;28;19999;-80